Quorrobolong, New South Wales

5:34 AM AEDT on February 08, 2016 (GMT +1100)
INSWQUOR2 | | Change Station
CLOSE
Current Station
Personal Weather Station
Location: Quorrobolong, NSW
Elevation: 522 ft
Nearby Weather Stations

Elev 522 ft 32.91 °S, 151.38 °E | Updated 28 seconds ago

Overcast
Overcast
61.0 °F
Feels Like 61.0 °F
N
0.0
Wind Variable Wind from South
Gusts 0.0 mph

Today
High -- | Low -- °F
--% Chance of Precip.
Yesterday
High -- | Low -- °F
Precip. -- in
Pressure 30.01 in
Visibility 6.2 miles
Clouds Scattered Clouds 3400 ft
Mostly Cloudy 4500 ft
Overcast 5200 ft
Dew Point 55 °F
Humidity 82%
Rainfall 0.00 in
Snow Depth Not available.
6:23 AM 7:53 PM
Waning Crescent, 1% visible
METAR YWLM 071800Z AUTO 31007KT 9999 // SCT034 BKN045 OVC052 18/17 Q1016
Pressure 30.01 in
Visibility 6.2 miles
Clouds Scattered Clouds 3400 ft
Mostly Cloudy 4500 ft
Overcast 5200 ft
Dew Point 55 °F
Humidity 82%
Rainfall 0.00 in
Snow Depth Not available.
6:23 AM 7:53 PM
Waning Crescent, 1% visible
METAR YWLM 071800Z AUTO 31007KT 9999 // SCT034 BKN045 OVC052 18/17 Q1016

10-Day Weather Forecast

Almanac

Astronomy

Feb. 08, 2016 Rise Set
Actual Time
Civil Twilight
Nautical Twilight
Astronomical Twilight
Moon
Length of Visible Light
Length of Day
Tomorrow will be .
, % of the Moon is Illuminated

Today's Extremes

Country Highs Country Lows

Community

WunderPhotos

Upload Photos

1,891,280 photos uploaded!

WunderBlog® & News

Nearby

Air Quality

  Air Quality AQ Index Pollutant
Not available.

Snow Depth

Station Depth Elevation

Earthquake Activity

City Distance Mag. Time & Date
Minimum magnitude displayed is 2.5.

Coastal Water Temperatures

Place Temperature

Stations

Nearby Weather Stations

Station Location Temp. Windchill Dew Point Humidity Wind Precip. Elev Updated Type